createdAt,value
2018-08-13T00:01:46.903Z,12.60
2018-08-13T00:04:15.077Z,12.50
2018-08-13T00:06:43.252Z,12.50
2018-08-13T00:09:11.397Z,12.50
2018-08-13T00:11:39.578Z,12.40
2018-08-13T00:14:07.756Z,12.40
2018-08-13T00:16:35.930Z,12.40
2018-08-13T00:19:04.074Z,12.40
2018-08-13T00:21:32.250Z,12.30
2018-08-13T00:24:00.404Z,12.30
2018-08-13T00:26:29.395Z,12.30
2018-08-13T00:28:57.557Z,12.20
2018-08-13T00:31:25.698Z,12.30
2018-08-13T00:33:53.894Z,12.20
2018-08-13T00:36:22.070Z,12.20
2018-08-13T00:38:50.250Z,12.40
2018-08-13T00:41:18.399Z,12.40
2018-08-13T00:43:46.556Z,12.30
2018-08-13T00:46:14.766Z,12.30
2018-08-13T00:48:42.942Z,12.20
2018-08-13T00:51:11.122Z,12.20
2018-08-13T00:53:39.278Z,12.20
2018-08-13T00:56:07.506Z,12.20
2018-08-13T00:58:35.666Z,12.20
2018-08-13T01:01:03.822Z,12.10
2018-08-13T01:03:31.973Z,12.10
2018-08-13T01:06:00.135Z,12.00
2018-08-13T01:08:28.286Z,12.10
2018-08-13T01:10:56.455Z,12.10
2018-08-13T01:13:24.602Z,12.10
2018-08-13T01:15:52.754Z,12.20
2018-08-13T01:18:20.938Z,12.20
2018-08-13T01:20:49.094Z,12.30
2018-08-13T01:23:17.250Z,12.20
2018-08-13T01:25:45.425Z,12.10
2018-08-13T01:28:13.589Z,12.10
2018-08-13T01:30:41.755Z,12.10
2018-08-13T01:33:09.953Z,12.20
2018-08-13T01:35:38.091Z,12.10
2018-08-13T01:38:06.231Z,12.00
2018-08-13T01:40:34.490Z,12.00
2018-08-13T01:43:02.645Z,12.00
2018-08-13T01:45:30.807Z,12.00
2018-08-13T01:47:58.980Z,12.00
2018-08-13T01:50:27.145Z,11.90
2018-08-13T01:52:55.291Z,11.90
2018-08-13T01:55:23.462Z,11.90
2018-08-13T01:57:51.630Z,11.90
2018-08-13T02:00:19.774Z,11.90
2018-08-13T02:02:47.918Z,11.90
2018-08-13T02:05:16.084Z,11.80
2018-08-13T02:07:44.275Z,11.80
2018-08-13T02:10:13.068Z,11.80
2018-08-13T02:12:41.392Z,11.80
2018-08-13T02:15:09.646Z,11.90
2018-08-13T02:17:37.850Z,11.80
2018-08-13T02:20:07.082Z,11.90
2018-08-13T02:22:35.322Z,11.90
2018-08-13T02:25:04.368Z,11.90
2018-08-13T02:27:32.579Z,11.90
2018-08-13T02:30:00.791Z,11.90
2018-08-13T02:32:28.991Z,11.90
2018-08-13T02:34:57.207Z,12.00
2018-08-13T02:37:25.367Z,12.00
2018-08-13T02:39:53.540Z,12.10
2018-08-13T02:42:21.717Z,12.00
2018-08-13T02:44:50.581Z,12.00
2018-08-13T02:47:18.741Z,12.00
2018-08-13T02:49:46.903Z,12.00
2018-08-13T02:52:15.106Z,11.90
2018-08-13T02:54:43.256Z,11.90
2018-08-13T02:57:11.412Z,11.90
2018-08-13T02:59:39.579Z,12.00
2018-08-13T03:02:07.722Z,11.80
2018-08-13T03:04:36.033Z,11.90
2018-08-13T03:07:04.234Z,11.90
2018-08-13T03:09:32.447Z,11.80
2018-08-13T03:12:00.631Z,11.80
2018-08-13T03:14:28.781Z,11.70
2018-08-13T03:16:56.951Z,11.70
2018-08-13T03:19:25.139Z,11.70
2018-08-13T03:21:53.292Z,11.70
2018-08-13T03:24:21.447Z,11.60
2018-08-13T03:26:49.668Z,11.60
2018-08-13T03:29:17.828Z,11.60
2018-08-13T03:31:45.975Z,11.60
2018-08-13T03:34:14.148Z,11.70
2018-08-13T03:36:42.268Z,11.70
2018-08-13T03:39:12.276Z,11.70
2018-08-13T03:41:40.946Z,11.60
2018-08-13T03:44:10.086Z,11.60
2018-08-13T03:46:39.178Z,11.60
2018-08-13T03:49:07.867Z,11.60
2018-08-13T03:51:36.036Z,11.60
2018-08-13T03:54:04.218Z,11.70
2018-08-13T03:56:32.463Z,11.80
2018-08-13T03:59:00.642Z,11.80
2018-08-13T04:01:28.786Z,11.80
2018-08-13T04:03:56.961Z,12.00
2018-08-13T04:06:25.131Z,12.00
2018-08-13T04:08:53.297Z,12.30
2018-08-13T04:11:21.405Z,12.40
2018-08-13T04:13:49.521Z,12.50
2018-08-13T04:16:17.704Z,12.60
2018-08-13T04:18:45.934Z,12.50
2018-08-13T04:21:14.133Z,12.50
2018-08-13T04:23:42.330Z,12.50
2018-08-13T04:26:10.478Z,12.60
2018-08-13T04:28:38.658Z,12.80
2018-08-13T04:31:06.786Z,12.90
2018-08-13T04:33:34.914Z,13.00
2018-08-13T04:36:03.051Z,13.10
2018-08-13T04:38:31.361Z,13.10
2018-08-13T04:40:59.503Z,13.20
2018-08-13T04:43:27.690Z,13.20
2018-08-13T04:45:55.797Z,13.30
2018-08-13T04:48:23.951Z,13.20
2018-08-13T04:50:52.107Z,13.20
2018-08-13T04:53:20.249Z,13.20
2018-08-13T04:55:48.490Z,13.20
2018-08-13T04:58:16.742Z,13.20
2018-08-13T05:00:44.930Z,13.40
2018-08-13T05:03:13.095Z,13.40
2018-08-13T05:05:41.242Z,13.30
2018-08-13T05:08:09.451Z,13.30
2018-08-13T05:10:37.751Z,13.30
2018-08-13T05:13:05.966Z,13.30
2018-08-13T05:15:34.164Z,13.50
2018-08-13T05:18:02.406Z,13.50
2018-08-13T05:20:30.537Z,13.50
2018-08-13T05:22:58.675Z,13.60
2018-08-13T05:25:26.889Z,13.80
2018-08-13T05:27:55.144Z,13.90
2018-08-13T05:30:23.316Z,13.90
2018-08-13T05:32:51.405Z,13.90
2018-08-13T05:35:19.501Z,14.10
2018-08-13T05:37:47.865Z,14.10
2018-08-13T05:40:16.053Z,14.10
2018-08-13T05:42:44.199Z,14.10
2018-08-13T05:45:12.344Z,13.90
2018-08-13T05:47:40.556Z,13.70
2018-08-13T05:50:10.183Z,13.60
2018-08-13T05:52:38.359Z,13.70
2018-08-13T05:55:07.654Z,13.70
2018-08-13T05:57:35.794Z,13.80
2018-08-13T06:00:05.626Z,13.80
2018-08-13T06:02:33.764Z,13.90
2018-08-13T06:05:01.887Z,14.00
2018-08-13T06:07:30.013Z,14.00
2018-08-13T06:09:58.114Z,14.20
2018-08-13T06:12:26.204Z,14.20
2018-08-13T06:14:54.313Z,14.30
2018-08-13T06:17:22.522Z,14.30
2018-08-13T06:19:50.749Z,14.30
2018-08-13T06:22:18.890Z,14.40
2018-08-13T06:24:47.062Z,14.40
2018-08-13T06:27:15.185Z,14.50
2018-08-13T06:29:43.550Z,14.50
2018-08-13T06:32:11.692Z,14.50
2018-08-13T06:34:39.870Z,14.60
2018-08-13T06:37:08.094Z,14.80
2018-08-13T06:39:36.273Z,14.70
2018-08-13T06:42:04.514Z,14.50
2018-08-13T06:44:32.713Z,14.50
2018-08-13T06:47:00.889Z,14.50
2018-08-13T06:49:28.962Z,14.50
2018-08-13T06:51:57.113Z,14.50
2018-08-13T06:54:25.551Z,14.60
2018-08-13T06:56:53.974Z,14.70
2018-08-13T06:59:22.111Z,14.90
2018-08-13T07:01:50.266Z,14.90
2018-08-13T07:04:18.399Z,15.00
2018-08-13T07:06:46.613Z,15.00
2018-08-13T07:09:14.898Z,15.10
2018-08-13T07:11:43.037Z,15.20
2018-08-13T07:14:11.182Z,15.20
2018-08-13T07:16:39.297Z,15.20
2018-08-13T07:19:07.442Z,15.30
2018-08-13T07:21:35.559Z,15.30
2018-08-13T07:24:03.833Z,15.20
2018-08-13T07:26:32.024Z,15.30
2018-08-13T07:29:00.276Z,15.30
2018-08-13T07:31:28.398Z,15.30
2018-08-13T07:33:56.516Z,15.50
2018-08-13T07:36:24.666Z,15.50
2018-08-13T07:38:53.198Z,15.50
2018-08-13T07:41:21.396Z,15.50
2018-08-13T07:43:49.529Z,15.50
2018-08-13T07:46:17.713Z,15.50
2018-08-13T07:48:46.116Z,15.60
2018-08-13T07:51:14.421Z,15.70
2018-08-13T07:53:42.530Z,15.80
2018-08-13T07:56:10.697Z,15.80
2018-08-13T07:58:38.871Z,15.80
2018-08-13T08:01:06.990Z,15.80
2018-08-13T08:03:35.442Z,15.90
2018-08-13T08:06:03.566Z,15.90
2018-08-13T08:08:31.754Z,15.90
2018-08-13T08:10:59.973Z,16.00
2018-08-13T08:13:28.162Z,16.00
2018-08-13T08:15:56.314Z,16.00
2018-08-13T08:18:24.494Z,16.00
2018-08-13T08:20:52.639Z,16.10
2018-08-13T08:23:20.758Z,16.20
2018-08-13T08:25:49.527Z,16.10
2018-08-13T08:28:17.650Z,16.20
2018-08-13T08:30:45.830Z,16.20
2018-08-13T08:33:13.998Z,16.30
2018-08-13T08:35:42.153Z,16.30
2018-08-13T08:38:10.323Z,16.50
2018-08-13T08:40:38.545Z,16.50
2018-08-13T08:43:07.834Z,16.50
2018-08-13T08:45:35.952Z,16.60
2018-08-13T08:48:04.206Z,16.50
2018-08-13T08:50:32.334Z,16.40
2018-08-13T08:53:00.449Z,16.50
2018-08-13T08:55:28.594Z,16.50
2018-08-13T08:57:56.761Z,16.50
2018-08-13T09:00:25.449Z,16.50
2018-08-13T09:02:53.677Z,16.60
2018-08-13T09:05:21.863Z,16.50
2018-08-13T09:07:50.069Z,16.60
2018-08-13T09:10:18.250Z,16.70
2018-08-13T09:12:46.396Z,16.80
2018-08-13T09:15:16.311Z,16.90
2018-08-13T09:17:56.868Z,17.00
2018-08-13T09:20:36.222Z,17.00
2018-08-13T09:23:16.301Z,17.10
2018-08-13T09:25:55.876Z,17.00
2018-08-13T09:28:35.313Z,16.90
2018-08-13T09:31:29.940Z,16.70
2018-08-13T09:34:09.487Z,16.70
2018-08-13T09:36:37.672Z,16.80
2018-08-13T09:39:07.835Z,16.90
2018-08-13T09:41:35.965Z,16.90
2018-08-13T09:44:04.127Z,17.10
2018-08-13T09:46:32.283Z,17.20
2018-08-13T09:49:00.435Z,17.30
2018-08-13T09:51:28.683Z,17.40
2018-08-13T09:53:56.860Z,17.30
2018-08-13T09:56:24.967Z,17.30
2018-08-13T09:58:53.097Z,17.20
2018-08-13T10:01:21.213Z,17.10
2018-08-13T10:03:49.458Z,17.10
2018-08-13T10:06:17.574Z,17.10
2018-08-13T10:08:45.685Z,17.00
2018-08-13T10:11:13.793Z,17.20
2018-08-13T10:13:41.931Z,17.50
2018-08-13T10:16:10.091Z,17.70
2018-08-13T10:18:38.209Z,17.90
2018-08-13T10:21:06.303Z,18.30
2018-08-13T10:23:34.433Z,18.70
2018-08-13T10:26:02.606Z,18.50
2018-08-13T10:28:30.741Z,19.10
2018-08-13T10:30:58.839Z,19.40
2018-08-13T10:33:27.014Z,20.00
2018-08-13T10:35:55.108Z,19.90
2018-08-13T10:38:23.243Z,19.40
2018-08-13T10:40:51.350Z,19.70
2018-08-13T10:43:19.450Z,20.70
2018-08-13T10:45:47.567Z,20.40
2018-08-13T10:48:15.701Z,20.20
2018-08-13T10:50:43.809Z,20.00
2018-08-13T10:53:11.914Z,20.40
2018-08-13T10:55:40.026Z,20.60
2018-08-13T10:58:08.154Z,20.00
2018-08-13T11:00:36.252Z,20.00
2018-08-13T11:03:04.366Z,19.70
2018-08-13T11:05:32.453Z,19.40
2018-08-13T11:08:00.557Z,19.50
2018-08-13T11:10:28.663Z,19.60
2018-08-13T11:12:56.801Z,19.30
2018-08-13T11:15:24.945Z,19.40
2018-08-13T11:17:53.101Z,19.20
2018-08-13T11:20:21.217Z,19.30
2018-08-13T11:22:49.320Z,19.40
2018-08-13T11:25:17.464Z,19.60
2018-08-13T11:27:45.564Z,19.50
2018-08-13T11:30:14.913Z,19.70
2018-08-13T11:32:43.063Z,19.60
2018-08-13T11:35:11.250Z,19.50
2018-08-13T11:37:39.437Z,19.60
2018-08-13T11:40:11.405Z,19.50
2018-08-13T11:42:39.873Z,19.80
2018-08-13T11:45:08.257Z,20.30
2018-08-13T11:47:37.055Z,20.50
2018-08-13T11:50:16.448Z,21.30
2018-08-13T11:52:46.496Z,21.70
2018-08-13T11:55:14.864Z,21.90
2018-08-13T11:57:43.480Z,21.20
2018-08-13T12:00:12.379Z,21.10
2018-08-13T12:02:40.507Z,21.10
2018-08-13T12:05:10.740Z,21.70
2018-08-13T12:07:38.869Z,22.00
2018-08-13T12:10:08.637Z,21.70
2018-08-13T12:12:37.006Z,21.70
2018-08-13T12:15:06.034Z,21.90
2018-08-13T12:17:34.189Z,22.20
2018-08-13T12:20:02.546Z,22.80
2018-08-13T12:22:30.693Z,23.20
2018-08-13T12:24:58.817Z,23.30
2018-08-13T12:27:26.927Z,22.80
2018-08-13T12:29:55.311Z,22.80
2018-08-13T12:32:23.486Z,22.40
2018-08-13T12:34:51.620Z,22.90
2018-08-13T12:37:19.783Z,23.40
2018-08-13T12:39:47.825Z,24.30
2018-08-13T12:42:15.934Z,24.20
2018-08-13T12:44:44.066Z,24.10
2018-08-13T12:47:12.167Z,24.10
2018-08-13T12:49:40.333Z,24.30
2018-08-13T12:52:08.450Z,23.80
2018-08-13T12:54:36.584Z,23.60
2018-08-13T12:57:04.867Z,24.30
2018-08-13T12:59:32.954Z,24.10
2018-08-13T13:02:01.043Z,23.50
2018-08-13T13:04:29.598Z,24.20
2018-08-13T13:06:57.714Z,24.70
2018-08-13T13:09:26.025Z,24.80
2018-08-13T13:11:54.112Z,24.20
2018-08-13T13:14:22.219Z,23.40
2018-08-13T13:16:50.330Z,23.20
2018-08-13T13:19:18.499Z,23.80
2018-08-13T13:21:46.632Z,24.30
2018-08-13T13:24:14.751Z,24.20
2018-08-13T13:26:43.583Z,24.60
2018-08-13T13:29:11.689Z,24.90
2018-08-13T13:31:39.817Z,24.40
2018-08-13T13:34:07.910Z,24.60
2018-08-13T13:36:37.095Z,24.50
2018-08-13T13:39:07.206Z,25.10
2018-08-13T13:41:35.318Z,24.90
2018-08-13T13:44:03.469Z,25.30
2018-08-13T13:46:31.567Z,25.60
2018-08-13T13:48:59.674Z,24.80
2018-08-13T13:51:27.979Z,25.10
2018-08-13T13:53:56.064Z,24.70
2018-08-13T13:56:24.239Z,25.20
2018-08-13T13:58:52.353Z,25.40
2018-08-13T14:01:20.482Z,25.20
2018-08-13T14:03:48.606Z,25.70
2018-08-13T14:06:16.710Z,25.20
2018-08-13T14:08:44.806Z,25.60
2018-08-13T14:11:12.958Z,25.90
2018-08-13T14:13:41.066Z,26.00
2018-08-13T14:16:09.261Z,25.60
2018-08-13T14:18:37.418Z,25.50
2018-08-13T14:21:05.674Z,25.00
2018-08-13T14:23:33.794Z,24.70
2018-08-13T14:26:01.925Z,24.50
2018-08-13T14:28:30.035Z,24.60
2018-08-13T14:30:58.134Z,24.30
2018-08-13T14:33:26.221Z,24.30
2018-08-13T14:35:54.343Z,24.30
2018-08-13T14:38:22.442Z,24.20
2018-08-13T14:40:50.581Z,24.20
2018-08-13T14:43:19.013Z,24.10
2018-08-13T14:45:47.117Z,24.10
2018-08-13T14:48:15.214Z,24.00
2018-08-13T14:50:43.505Z,24.20
2018-08-13T14:53:11.598Z,23.90
2018-08-13T14:55:39.706Z,24.00
2018-08-13T14:58:07.841Z,23.70
2018-08-13T15:00:37.365Z,23.50
2018-08-13T15:03:09.766Z,23.30
2018-08-13T15:05:38.017Z,23.20
2018-08-13T15:08:06.336Z,23.10
2018-08-13T15:10:34.626Z,23.00
2018-08-13T15:13:02.806Z,22.70
2018-08-13T15:15:30.859Z,22.60
2018-08-13T15:17:58.981Z,22.40
2018-08-13T15:20:28.293Z,22.40
2018-08-13T15:22:56.437Z,22.90
2018-08-13T15:25:24.698Z,23.10
2018-08-13T15:27:52.994Z,23.40
2018-08-13T15:30:21.440Z,23.60
2018-08-13T15:32:50.781Z,23.90
2018-08-13T15:35:18.897Z,23.80
2018-08-13T15:37:47.639Z,23.60
2018-08-13T15:40:15.901Z,23.50
2018-08-13T15:42:44.002Z,23.30
2018-08-13T15:45:14.214Z,23.20
2018-08-13T15:47:42.354Z,23.10
2018-08-13T15:50:12.054Z,22.90
2018-08-13T15:52:40.257Z,22.80
2018-08-13T15:55:08.422Z,22.70
2018-08-13T15:57:36.529Z,22.70
2018-08-13T16:00:05.894Z,22.50
2018-08-13T16:02:34.004Z,22.50
2018-08-13T16:05:02.338Z,22.50
2018-08-13T16:07:30.421Z,22.20
2018-08-13T16:10:00.626Z,22.30
2018-08-13T16:12:28.725Z,22.10
2018-08-13T16:14:57.637Z,22.20
2018-08-13T16:17:25.748Z,22.30
2018-08-13T16:19:53.826Z,22.00
2018-08-13T16:22:21.917Z,21.70
2018-08-13T16:24:50.018Z,21.20
2018-08-13T16:27:18.126Z,20.90
2018-08-13T16:29:46.214Z,20.70
2018-08-13T16:32:16.326Z,20.70
2018-08-13T16:34:44.429Z,20.40
2018-08-13T16:37:12.551Z,20.20
2018-08-13T16:39:40.656Z,20.10
2018-08-13T16:42:08.757Z,20.10
2018-08-13T16:44:36.853Z,19.90
2018-08-13T16:47:04.949Z,20.10
2018-08-13T16:49:33.086Z,20.10
2018-08-13T16:52:01.173Z,20.10
2018-08-13T16:54:29.286Z,19.90
2018-08-13T16:56:57.413Z,20.00
2018-08-13T16:59:25.533Z,20.20
2018-08-13T17:01:53.633Z,20.20
2018-08-13T17:04:23.808Z,20.40
2018-08-13T17:06:51.908Z,20.30
2018-08-13T17:09:20.009Z,20.30
2018-08-13T17:11:48.145Z,20.30
2018-08-13T17:14:16.341Z,20.20
2018-08-13T17:16:46.229Z,20.20
2018-08-13T17:19:14.352Z,20.30
2018-08-13T17:21:42.449Z,20.40
2018-08-13T17:24:12.207Z,20.60
2018-08-13T17:26:40.345Z,20.80
2018-08-13T17:29:08.745Z,20.70
2018-08-13T17:31:37.326Z,20.40
2018-08-13T17:34:06.302Z,20.30
2018-08-13T17:36:34.324Z,20.10
2018-08-13T17:39:02.464Z,20.10
2018-08-13T17:41:30.568Z,20.20
2018-08-13T17:44:00.741Z,20.20
2018-08-13T17:46:28.830Z,20.20
2018-08-13T17:48:56.955Z,20.10
2018-08-13T17:51:25.131Z,20.20
2018-08-13T17:53:53.281Z,20.30
2018-08-13T17:56:21.399Z,20.30
2018-08-13T17:58:49.506Z,20.30
2018-08-13T18:01:17.598Z,20.20
2018-08-13T18:03:45.694Z,20.20
2018-08-13T18:06:13.798Z,20.10
2018-08-13T18:08:41.941Z,20.10
2018-08-13T18:11:14.003Z,20.00
2018-08-13T18:13:42.100Z,19.90
2018-08-13T18:16:10.226Z,19.80
2018-08-13T18:18:38.331Z,19.80
2018-08-13T18:21:06.631Z,19.70
2018-08-13T18:23:34.632Z,19.70
2018-08-13T18:26:03.784Z,19.60
2018-08-13T18:28:31.883Z,19.60
2018-08-13T18:30:59.990Z,19.50
2018-08-13T18:33:28.106Z,19.50
2018-08-13T18:35:56.267Z,19.40
2018-08-13T18:38:24.301Z,19.40
2018-08-13T18:40:53.497Z,19.30
2018-08-13T18:43:21.618Z,19.10
2018-08-13T18:45:49.734Z,18.90
2018-08-13T18:48:17.833Z,18.80
2018-08-13T18:50:45.938Z,18.60
2018-08-13T18:53:14.078Z,18.40
2018-08-13T18:55:42.184Z,18.20
2018-08-13T18:58:10.273Z,18.20
2018-08-13T19:00:38.391Z,18.10
2018-08-13T19:03:07.571Z,18.00
2018-08-13T19:05:35.696Z,17.80
2018-08-13T19:08:03.790Z,17.70
2018-08-13T19:10:31.889Z,17.60
2018-08-13T19:12:59.985Z,17.40
2018-08-13T19:15:28.675Z,17.30
2018-08-13T19:17:56.794Z,17.20
2018-08-13T19:20:25.002Z,17.20
2018-08-13T19:22:53.158Z,17.10
2018-08-13T19:25:23.970Z,17.10
2018-08-13T19:27:52.111Z,17.20
2018-08-13T19:30:21.190Z,17.20
2018-08-13T19:32:49.985Z,17.30
2018-08-13T19:35:18.152Z,17.30
2018-08-13T19:37:48.854Z,17.30
2018-08-13T19:40:19.109Z,17.40
2018-08-13T19:42:48.110Z,17.50
2018-08-13T19:45:17.098Z,17.50
2018-08-13T19:47:45.475Z,17.40
2018-08-13T19:50:30.534Z,17.40
2018-08-13T19:52:58.657Z,17.30
2018-08-13T19:55:26.931Z,17.20
2018-08-13T19:57:54.998Z,17.20
2018-08-13T20:00:26.106Z,17.20
2018-08-13T20:02:54.609Z,17.10
2018-08-13T20:05:23.870Z,17.00
2018-08-13T20:07:52.677Z,16.90
2018-08-13T20:10:20.841Z,16.80
2018-08-13T20:12:48.964Z,16.70
2018-08-13T20:15:17.096Z,16.50
2018-08-13T20:17:45.467Z,16.40
2018-08-13T20:20:18.797Z,16.40
2018-08-13T20:22:47.748Z,16.20
2018-08-13T20:25:16.885Z,16.10
2018-08-13T20:27:45.581Z,16.00
2018-08-13T20:30:15.841Z,16.00
2018-08-13T20:32:45.091Z,15.90
2018-08-13T20:35:13.206Z,15.90
2018-08-13T20:37:41.437Z,15.80
2018-08-13T20:40:11.519Z,15.70
2018-08-13T20:42:40.596Z,15.70
2018-08-13T20:45:11.437Z,15.70
2018-08-13T20:47:39.557Z,15.60
2018-08-13T20:50:10.118Z,15.50
2018-08-13T20:52:38.226Z,15.50
2018-08-13T20:55:10.686Z,15.40
2018-08-13T20:57:38.798Z,15.40
2018-08-13T21:00:08.857Z,15.30
2018-08-13T21:02:37.240Z,15.30
2018-08-13T21:05:05.402Z,15.20
2018-08-13T21:07:33.528Z,15.20
2018-08-13T21:10:01.817Z,15.20
2018-08-13T21:12:29.920Z,15.10
2018-08-13T21:14:58.071Z,15.10
2018-08-13T21:17:27.281Z,15.00
2018-08-13T21:19:55.373Z,15.00
2018-08-13T21:22:23.477Z,14.90
2018-08-13T21:24:51.573Z,14.80
2018-08-13T21:27:19.686Z,14.80
2018-08-13T21:29:48.289Z,14.80
2018-08-13T21:32:17.426Z,14.80
2018-08-13T21:34:45.529Z,14.70
2018-08-13T21:37:13.646Z,14.70
2018-08-13T21:39:41.752Z,14.70
2018-08-13T21:42:09.853Z,14.60
2018-08-13T21:44:38.029Z,14.60
2018-08-13T21:47:06.149Z,14.60
2018-08-13T21:49:34.361Z,14.60
2018-08-13T21:52:02.509Z,14.50
2018-08-13T21:54:30.600Z,14.60
2018-08-13T21:56:58.712Z,14.60
2018-08-13T21:59:26.832Z,14.50
2018-08-13T22:01:54.944Z,14.50
2018-08-13T22:04:23.037Z,14.50
2018-08-13T22:06:51.147Z,14.40
2018-08-13T22:09:19.266Z,14.50
2018-08-13T22:11:47.371Z,14.50
2018-08-13T22:14:15.486Z,14.40
2018-08-13T22:16:43.587Z,14.40
2018-08-13T22:19:11.688Z,14.40
2018-08-13T22:21:39.785Z,14.30
2018-08-13T22:24:19.329Z,14.20
2018-08-13T22:26:47.417Z,14.20
2018-08-13T22:29:15.516Z,14.20
2018-08-13T22:31:43.606Z,14.10
2018-08-13T22:34:11.759Z,14.10
2018-08-13T22:36:39.854Z,14.10
2018-08-13T22:39:08.686Z,14.00
2018-08-13T22:41:36.970Z,13.90
2018-08-13T22:44:05.069Z,13.90
2018-08-13T22:46:33.313Z,13.90
2018-08-13T22:49:02.482Z,13.90
2018-08-13T22:51:30.597Z,13.90
2018-08-13T22:53:58.713Z,13.90
2018-08-13T22:56:26.892Z,13.90
2018-08-13T22:58:54.990Z,13.90
2018-08-13T23:01:23.230Z,13.80
2018-08-13T23:03:51.409Z,13.70
2018-08-13T23:06:20.021Z,13.70
2018-08-13T23:08:48.101Z,13.70
2018-08-13T23:11:17.260Z,13.70
2018-08-13T23:13:45.367Z,13.60
2018-08-13T23:16:13.457Z,13.60
2018-08-13T23:18:41.559Z,13.70
2018-08-13T23:21:09.654Z,13.90
2018-08-13T23:23:37.758Z,14.10
2018-08-13T23:26:05.927Z,14.10
2018-08-13T23:28:34.065Z,14.20
2018-08-13T23:31:02.162Z,14.20
2018-08-13T23:33:30.270Z,14.20
2018-08-13T23:35:58.376Z,14.30
2018-08-13T23:38:26.494Z,14.40
2018-08-13T23:40:54.589Z,14.50
2018-08-13T23:43:22.686Z,14.60
2018-08-13T23:45:50.786Z,14.60
2018-08-13T23:48:18.884Z,14.70
2018-08-13T23:50:46.989Z,14.70
2018-08-13T23:53:15.095Z,14.70
2018-08-13T23:55:43.198Z,14.70
2018-08-13T23:58:12.181Z,14.80
